Time;durP1;ratioP1;P1;durP2;ratioP2;P2;SDS_P1;SDS_P2;PMS_P1;PMS_P2;Temp;Humidity;BMP_temperature;BMP_pressure;BME280_temperature;BME280_humidity;BME280_pressure;Samples;Min_cycle;Max_cycle;Signal;HPM_P1;HPM_P2
2022/02/06 00:00:30;;;;;;;;;;;10.90;99.90;;;;;;5044797;28;20495;-81
2022/02/06 00:03:02;;;;;;;;;;;10.70;99.90;;;;;;5043643;28;20087;-80
2022/02/06 00:05:30;;;;;;;;;;;10.70;99.90;;;;;;5045354;28;19929;-83
2022/02/06 00:08:06;;;;;;;;;;;9.50;99.90;;;;;;5042754;28;19925;-83
2022/02/06 00:10:39;;;;;;;;;;;10.10;99.90;;;;;;5021594;28;20428;-83
2022/02/06 00:13:14;;;;;;;;;;;10.80;99.90;;;;;;5042309;28;19956;-81
2022/02/06 00:15:43;;;;;;;;;;;12.20;99.90;;;;;;5041780;28;19933;-81
2022/02/06 00:18:11;;;;;;;;;;;10.70;99.90;;;;;;5043838;28;19925;-83
2022/02/06 00:20:50;;;;;;;;;;;10.80;99.90;;;;;;5045091;28;20393;-81
2022/02/06 00:23:22;;;;;;;;;;;10.70;99.90;;;;;;5044236;28;19929;-80
2022/02/06 00:26:10;;;;;;;;;;;10.60;99.90;;;;;;5018741;28;19932;-81
2022/02/06 00:28:45;;;;;;;;;;;10.70;99.90;;;;;;5049148;28;19936;-81
2022/02/06 00:31:33;;;;;;;;;;;;;;;;;;;;;
2022/02/06 00:40:02;;;;;;;;;;;10.80;99.90;;;;;;5050118;28;19925;-81
2022/02/06 00:42:32;;;;;;;;;;;10.70;99.90;;;;;;5009097;28;19929;-81
2022/02/06 00:45:00;;;;;;;;;;;10.70;99.90;;;;;;5029039;28;19929;-82
2022/02/06 00:47:28;;;;;;;;;;;10.70;99.90;;;;;;5043660;28;19926;-81
2022/02/06 00:49:59;;;;;;;;;;;10.70;99.90;;;;;;5026228;28;19925;-81
2022/02/06 00:52:35;;;;;;;;;;;10.70;99.90;;;;;;5044330;28;19925;-81
2022/02/06 00:55:06;;;;;;;;;;;10.70;99.90;;;;;;5022577;28;19929;-81
2022/02/06 00:57:39;;;;;;;;;;;10.70;99.90;;;;;;4695846;28;10000117;-81
2022/02/06 01:00:08;;;;;;;;;;;12.00;99.90;;;;;;5039864;28;19925;-81
2022/02/06 01:02:36;;;;;;;;;;;10.20;99.90;;;;;;5058339;28;19925;-82
2022/02/06 01:05:06;;;;;;;;;;;10.70;99.90;;;;;;5063102;28;19995;-81
2022/02/06 01:07:34;;;;;;;;;;;10.40;99.90;;;;;;5045534;28;20187;-82
2022/02/06 01:10:06;;;;;;;;;;;10.70;99.90;;;;;;5061714;28;19925;-81
2022/02/06 01:12:36;;;;;;;;;;;10.80;99.90;;;;;;5062465;28;19933;-82
2022/02/06 01:15:19;;;;;;;;;;;9.20;99.90;;;;;;5045906;28;19925;-81
2022/02/06 01:17:53;;;;;;;;;;;10.70;99.90;;;;;;5061867;28;20381;-81
2022/02/06 01:20:36;;;;;;;;;;;10.70;99.90;;;;;;5063987;28;19925;-81
2022/02/06 01:23:10;;;;;;;;;;;10.60;99.90;;;;;;5048681;28;19933;-81
2022/02/06 01:25:52;;;;;;;;;;;10.60;99.90;;;;;;5056325;28;19929;-83
2022/02/06 01:28:38;;;;;;;;;;;9.70;99.90;;;;;;5033450;28;19929;-84
2022/02/06 01:33:57;;;;;;;;;;;10.40;99.90;;;;;;5034504;28;19935;-82
2022/02/06 01:36:40;;;;;;;;;;;10.40;99.90;;;;;;5043376;28;19925;-83
2022/02/06 01:42:11;;;;;;;;;;;10.20;99.90;;;;;;5042205;28;19935;-82
2022/02/06 01:45:10;;;;;;;;;;;10.20;99.90;;;;;;5041441;28;19933;-82
2022/02/06 02:02:26;;;;;;;;;;;10.00;99.90;;;;;;5039486;28;19925;-81
2022/02/06 02:08:07;;;;;;;;;;;9.90;99.90;;;;;;5062710;28;19931;-81
2022/02/06 02:27:05;;;;;;;;;;;10.20;99.90;;;;;;5042069;28;19933;-82
2022/02/06 02:49:22;;;;;;;;;;;9.70;99.90;;;;;;4983482;28;19938;-81
2022/02/06 02:51:59;;;;;;;;;;;9.70;99.90;;;;;;4982611;28;20022;-81
2022/02/06 02:54:29;;;;;;;;;;;9.80;99.90;;;;;;5006392;28;19937;-80
2022/02/06 02:57:13;;;;;;;;;;;9.60;99.90;;;;;;5030254;28;19925;-80
2022/02/06 03:00:18;;;;;;;;;;;10.90;99.90;;;;;;5041722;28;19929;-81
2022/02/06 03:02:30;;;;;;;;;;;9.70;99.90;;;;;;5058102;28;20406;-81
2022/02/06 03:05:00;;;;;;;;;;;9.60;99.90;;;;;;5063271;28;19932;-80
2022/02/06 03:07:28;;;;;;;;;;;9.60;99.90;;;;;;5063691;28;20019;-81
2022/02/06 03:09:56;;;;;;;;;;;9.70;99.90;;;;;;5034894;28;19932;-81
2022/02/06 03:12:27;;;;;;;;;;;9.70;99.90;;;;;;5044123;28;19940;-81
2022/02/06 03:15:05;;;;;;;;;;;9.80;99.90;;;;;;5043474;28;20143;-80
2022/02/06 03:17:38;;;;;;;;;;;9.80;99.90;;;;;;5059340;28;20433;-81
2022/02/06 03:20:10;;;;;;;;;;;9.90;99.90;;;;;;5043601;28;19925;-80
2022/02/06 03:22:50;;;;;;;;;;;9.90;99.90;;;;;;5041870;28;19925;-81
2022/02/06 03:25:24;;;;;;;;;;;10.00;99.90;;;;;;5029019;28;19929;-81
2022/02/06 03:27:53;;;;;;;;;;;10.10;99.90;;;;;;5053139;28;19929;-81
2022/02/06 03:30:22;;;;;;;;;;;10.00;99.90;;;;;;5059641;28;19925;-80
2022/02/06 03:32:52;;;;;;;;;;;10.00;99.90;;;;;;5062655;28;19932;-81
2022/02/06 03:35:20;;;;;;;;;;;10.00;99.90;;;;;;5049265;28;19929;-80
2022/02/06 03:37:48;;;;;;;;;;;10.00;99.90;;;;;;5056819;28;19925;-83
2022/02/06 03:40:27;;;;;;;;;;;10.00;99.90;;;;;;5046878;28;19932;-82
2022/02/06 03:45:56;;;;;;;;;;;10.60;99.90;;;;;;5044581;28;19936;-80
2022/02/06 03:51:44;;;;;;;;;;;10.10;99.90;;;;;;5045454;28;19934;-83
2022/02/06 03:54:14;;;;;;;;;;;10.10;99.90;;;;;;5028260;28;20253;-83
2022/02/06 03:56:44;;;;;;;;;;;10.10;99.90;;;;;;5026371;28;19926;-82
2022/02/06 03:59:13;;;;;;;;;;;10.20;99.90;;;;;;5059772;28;19935;-82
2022/02/06 04:01:48;;;;;;;;;;;10.20;99.90;;;;;;5053975;28;19929;-82
2022/02/06 04:04:21;;;;;;;;;;;10.50;99.90;;;;;;5048937;28;19931;-81
2022/02/06 04:07:01;;;;;;;;;;;10.20;99.90;;;;;;5066087;28;19933;-81
2022/02/06 04:09:38;;;;;;;;;;;10.20;99.90;;;;;;5067519;28;20457;-82
2022/02/06 04:12:14;;;;;;;;;;;10.50;99.90;;;;;;5066883;28;19931;-83
2022/02/06 04:18:12;;;;;;;;;;;10.30;99.90;;;;;;5066534;28;19928;-81
2022/02/06 04:20:43;;;;;;;;;;;10.50;99.90;;;;;;5065114;28;19935;-81
2022/02/06 04:23:13;;;;;;;;;;;10.20;99.90;;;;;;5057263;28;19947;-83
2022/02/06 04:29:21;;;;;;;;;;;8.90;99.90;;;;;;5048916;28;19925;-81
2022/02/06 04:31:50;;;;;;;;;;;9.00;99.90;;;;;;5036128;28;19924;-82
2022/02/06 04:34:22;;;;;;;;;;;10.30;99.90;;;;;;5081169;28;19935;-82
2022/02/06 04:37:04;;;;;;;;;;;10.30;99.90;;;;;;5057585;28;19944;-83
2022/02/06 04:40:02;;;;;;;;;;;10.30;99.90;;;;;;5045285;28;19925;-82
2022/02/06 04:54:34;;;;;;;;;;;10.40;99.90;;;;;;5045533;28;19935;-82
2022/02/06 05:29:44;;;;;;;;;;;10.60;99.90;;;;;;5045261;28;19925;-83
2022/02/06 05:32:22;;;;;;;;;;;10.50;99.90;;;;;;5054775;28;19959;-82
2022/02/06 05:38:12;;;;;;;;;;;10.40;99.90;;;;;;5045534;28;19929;-83
2022/02/06 05:40:41;;;;;;;;;;;9.90;99.90;;;;;;5043581;28;19925;-81
2022/02/06 05:43:08;;;;;;;;;;;10.50;99.90;;;;;;5060334;28;19956;-81
2022/02/06 05:45:37;;;;;;;;;;;10.40;99.90;;;;;;5045066;28;20421;-82
2022/02/06 05:48:05;;;;;;;;;;;10.50;99.90;;;;;;4708481;28;9999886;-81
2022/02/06 05:50:33;;;;;;;;;;;10.50;99.90;;;;;;5041153;28;19936;-82
2022/02/06 05:53:01;;;;;;;;;;;10.50;99.90;;;;;;5041186;28;19932;-82
2022/02/06 05:55:30;;;;;;;;;;;10.60;99.90;;;;;;5045073;28;19925;-83
2022/02/06 05:57:58;;;;;;;;;;;10.60;99.90;;;;;;5042762;28;19940;-83
2022/02/06 06:00:32;;;;;;;;;;;10.60;99.90;;;;;;5041393;28;19929;-83
2022/02/06 06:03:04;;;;;;;;;;;10.70;99.90;;;;;;5060027;28;19925;-84
2022/02/06 06:05:35;;;;;;;;;;;10.60;99.90;;;;;;5059098;28;19929;-83
2022/02/06 06:08:08;;;;;;;;;;;10.60;99.90;;;;;;5042128;28;20333;-82
2022/02/06 06:10:42;;;;;;;;;;;12.20;99.90;;;;;;5058673;28;19926;-82
2022/02/06 06:13:13;;;;;;;;;;;10.70;99.90;;;;;;5043670;28;19935;-83
2022/02/06 06:19:07;;;;;;;;;;;10.20;99.90;;;;;;5042421;28;19925;-82
2022/02/06 06:21:43;;;;;;;;;;;10.50;99.90;;;;;;5042275;28;19929;-83
2022/02/06 06:24:18;;;;;;;;;;;10.80;99.90;;;;;;5059759;28;19929;-82
2022/02/06 06:26:48;;;;;;;;;;;10.50;99.90;;;;;;5040427;28;19925;-83
2022/02/06 06:29:19;;;;;;;;;;;10.40;99.90;;;;;;5042794;28;19936;-81
2022/02/06 06:31:47;;;;;;;;;;;10.40;99.90;;;;;;5037684;28;19933;-81
2022/02/06 06:34:19;;;;;;;;;;;10.20;99.90;;;;;;5038372;28;20400;-82
2022/02/06 06:36:50;;;;;;;;;;;10.40;99.90;;;;;;5020854;28;19935;-80
2022/02/06 06:39:33;;;;;;;;;;;10.40;99.90;;;;;;5037240;28;19929;-82
2022/02/06 06:42:04;;;;;;;;;;;11.80;99.90;;;;;;5021578;28;19930;-81
2022/02/06 06:44:37;;;;;;;;;;;10.30;99.90;;;;;;5021370;28;19926;-82
2022/02/06 06:47:06;;;;;;;;;;;10.50;99.90;;;;;;5024894;28;19929;-82
2022/02/06 06:52:54;;;;;;;;;;;10.50;99.90;;;;;;5043155;28;19925;-81
2022/02/06 06:55:28;;;;;;;;;;;10.50;99.90;;;;;;5042469;28;19929;-82
2022/02/06 06:58:14;;;;;;;;;;;10.10;99.90;;;;;;5049025;28;19935;-82
2022/02/06 07:03:19;;;;;;;;;;;12.00;99.90;;;;;;5082420;28;19943;-82
2022/02/06 07:05:49;;;;;;;;;;;10.40;99.90;;;;;;5048564;28;19925;-81
2022/02/06 07:08:23;;;;;;;;;;;10.40;99.90;;;;;;5050281;28;19925;-84
2022/02/06 07:10:52;;;;;;;;;;;10.30;99.90;;;;;;5065655;28;19925;-81
2022/02/06 07:13:22;;;;;;;;;;;10.40;99.90;;;;;;5050320;28;19929;-81
2022/02/06 07:16:06;;;;;;;;;;;10.50;99.90;;;;;;5066767;28;19929;-82
2022/02/06 07:18:34;;;;;;;;;;;10.50;99.90;;;;;;5066454;28;19929;-82
2022/02/06 07:21:02;;;;;;;;;;;9.10;99.90;;;;;;5065744;28;19936;-81
2022/02/06 07:23:30;;;;;;;;;;;10.40;99.90;;;;;;5064359;28;19932;-81
2022/02/06 07:26:03;;;;;;;;;;;10.40;99.90;;;;;;5066711;28;19929;-81
2022/02/06 07:28:36;;;;;;;;;;;10.30;99.90;;;;;;5055497;28;19932;-81
2022/02/06 07:31:04;;;;;;;;;;;10.30;99.90;;;;;;5047579;28;19933;-81
2022/02/06 07:33:32;;;;;;;;;;;10.50;99.90;;;;;;5065588;28;19925;-81
2022/02/06 07:36:02;;;;;;;;;;;10.50;99.90;;;;;;5065138;28;19929;-81
2022/02/06 07:38:33;;;;;;;;;;;10.50;99.90;;;;;;5064697;28;19935;-81
2022/02/06 07:41:12;;;;;;;;;;;10.70;99.90;;;;;;5065291;28;19929;-82
2022/02/06 07:43:54;;;;;;;;;;;10.50;99.90;;;;;;5063173;28;19928;-81
2022/02/06 07:46:29;;;;;;;;;;;10.80;99.90;;;;;;5066051;28;19925;-80
2022/02/06 07:49:03;;;;;;;;;;;10.50;99.90;;;;;;5029661;28;19929;-83
2022/02/06 07:51:41;;;;;;;;;;;10.80;99.90;;;;;;5059333;28;19961;-81
2022/02/06 07:54:13;;;;;;;;;;;10.60;99.90;;;;;;5044725;28;19932;-82
2022/02/06 07:56:46;;;;;;;;;;;10.60;99.90;;;;;;5044228;28;20184;-84
2022/02/06 07:59:15;;;;;;;;;;;11.00;99.90;;;;;;5052236;28;19929;-84
2022/02/06 08:01:43;;;;;;;;;;;10.70;99.90;;;;;;5044318;28;19925;-84
2022/02/06 08:04:14;;;;;;;;;;;10.70;99.90;;;;;;5045823;28;19935;-82
2022/02/06 08:06:46;;;;;;;;;;;10.90;99.90;;;;;;5045821;28;19935;-82
2022/02/06 08:09:15;;;;;;;;;;;10.70;99.90;;;;;;5045615;28;19932;-82
2022/02/06 08:11:52;;;;;;;;;;;10.80;99.90;;;;;;5046268;28;19925;-82
2022/02/06 08:17:13;;;;;;;;;;;10.80;99.90;;;;;;5045793;28;20586;-81
2022/02/06 08:19:59;;;;;;;;;;;;;;;;;;;;;
2022/02/06 08:22:52;;;;;;;;;;;11.90;99.90;;;;;;5040553;28;19925;-84
2022/02/06 08:26:00;;;;;;;;;;;10.50;99.90;;;;;;5027924;28;20495;-82
2022/02/06 08:29:00;;;;;;;;;;;;;;;;;;;;;
2022/02/06 08:32:06;;;;;;;;;;;10.30;99.90;;;;;;5042711;28;19929;-82
2022/02/06 08:34:55;;;;;;;;;;;11.80;99.90;;;;;;5052906;28;19936;-84
2022/02/06 08:37:31;;;;;;;;;;;10.30;99.90;;;;;;5040173;28;19936;-82
2022/02/06 08:40:59;;;;;;;;;;;10.30;99.90;;;;;;5026032;28;20310;-82
2022/02/06 08:43:27;;;;;;;;;;;10.20;99.90;;;;;;5043363;28;19935;-81
2022/02/06 08:46:04;;;;;;;;;;;10.40;99.90;;;;;;5059885;28;19933;-81
2022/02/06 08:48:40;;;;;;;;;;;10.30;99.90;;;;;;5038258;28;19930;-82
2022/02/06 08:51:23;;;;;;;;;;;9.90;99.90;;;;;;5039580;28;19936;-83
2022/02/06 08:54:02;;;;;;;;;;;11.00;99.90;;;;;;5048625;28;19925;-82
2022/02/06 08:56:39;;;;;;;;;;;10.30;99.90;;;;;;5042751;28;20206;-83
2022/02/06 08:59:21;;;;;;;;;;;10.30;99.90;;;;;;5041553;28;19929;-83
2022/02/06 09:02:15;;;;;;;;;;;10.30;99.90;;;;;;5043635;28;19932;-84
2022/02/06 09:04:48;;;;;;;;;;;10.40;99.90;;;;;;5041107;28;19936;-83
2022/02/06 09:07:18;;;;;;;;;;;10.00;99.90;;;;;;5041062;28;19943;-82
2022/02/06 09:10:01;;;;;;;;;;;9.80;99.90;;;;;;5038290;28;20227;-83
2022/02/06 09:12:55;;;;;;;;;;;10.50;99.90;;;;;;5039153;28;19937;-83
2022/02/06 09:15:32;;;;;;;;;;;10.20;99.90;;;;;;5043276;28;19964;-81
2022/02/06 09:18:08;;;;;;;;;;;10.70;99.90;;;;;;5041308;28;20140;-81
2022/02/06 09:20:36;;;;;;;;;;;10.50;99.90;;;;;;5043700;28;19931;-84
2022/02/06 09:23:04;;;;;;;;;;;10.60;99.90;;;;;;5027160;28;19935;-82
2022/02/06 09:25:33;;;;;;;;;;;10.80;99.90;;;;;;5026262;28;19925;-81
2022/02/06 09:28:01;;;;;;;;;;;10.70;99.90;;;;;;5045550;28;19932;-82
2022/02/06 09:30:30;;;;;;;;;;;10.80;99.90;;;;;;5043616;28;20393;-82
2022/02/06 09:35:26;;;;;;;;;;;11.50;99.90;;;;;;5059303;28;19929;-83
2022/02/06 09:37:56;;;;;;;;;;;11.20;99.90;;;;;;5042694;28;19929;-81
2022/02/06 09:40:26;;;;;;;;;;;11.00;99.90;;;;;;5043761;28;19929;-85
2022/02/06 09:42:58;;;;;;;;;;;11.10;99.90;;;;;;5026645;28;20370;-82
2022/02/06 09:45:28;;;;;;;;;;;11.00;99.90;;;;;;5042445;28;19925;-82
2022/02/06 09:48:03;;;;;;;;;;;11.00;99.90;;;;;;5043709;28;20539;-82
2022/02/06 09:50:35;;;;;;;;;;;11.00;99.90;;;;;;5042855;28;19925;-81
2022/02/06 09:53:07;;;;;;;;;;;10.90;99.90;;;;;;5043510;28;19932;-83
2022/02/06 09:55:43;;;;;;;;;;;10.80;99.90;;;;;;5044915;28;19929;-82
2022/02/06 10:01:18;;;;;;;;;;;10.60;99.90;;;;;;5043005;28;19932;-82
2022/02/06 10:04:11;;;;;;;;;;;10.40;99.90;;;;;;5041611;28;19929;-83
2022/02/06 10:06:49;;;;;;;;;;;11.50;99.90;;;;;;5023372;28;19935;-80
2022/02/06 10:09:23;;;;;;;;;;;10.20;99.90;;;;;;5045952;28;19936;-81
2022/02/06 10:11:55;;;;;;;;;;;10.10;99.90;;;;;;5039046;28;19936;-81
2022/02/06 10:14:40;;;;;;;;;;;10.20;99.90;;;;;;5024589;28;19932;-82
2022/02/06 10:17:11;;;;;;;;;;;10.20;99.90;;;;;;5038431;28;19925;-82
2022/02/06 10:19:53;;;;;;;;;;;10.30;99.90;;;;;;5049943;28;19925;-81
2022/02/06 10:22:37;;;;;;;;;;;10.30;99.90;;;;;;5058622;28;20306;-83
2022/02/06 10:25:09;;;;;;;;;;;10.30;99.90;;;;;;5039965;28;19925;-84
2022/02/06 10:27:49;;;;;;;;;;;10.50;99.90;;;;;;5045785;28;19931;-83
2022/02/06 10:30:39;;;;;;;;;;;10.50;99.90;;;;;;5046493;28;20012;-83
2022/02/06 10:33:15;;;;;;;;;;;10.70;99.90;;;;;;5025416;28;19940;-82
2022/02/06 10:35:55;;;;;;;;;;;10.50;99.90;;;;;;5041547;28;19925;-81
2022/02/06 10:38:29;;;;;;;;;;;10.40;99.90;;;;;;4690609;28;10000240;-83
2022/02/06 10:41:12;;;;;;;;;;;10.60;99.90;;;;;;5040272;28;19936;-83
2022/02/06 10:43:53;;;;;;;;;;;10.80;99.90;;;;;;5035169;28;19925;-82
2022/02/06 10:46:31;;;;;;;;;;;10.50;99.90;;;;;;5046004;28;19933;-82
2022/02/06 10:49:10;;;;;;;;;;;10.70;99.90;;;;;;5020502;28;20088;-82
2022/02/06 10:51:40;;;;;;;;;;;9.40;99.90;;;;;;5039676;28;19932;-85
2022/02/06 10:54:20;;;;;;;;;;;10.50;99.90;;;;;;5022849;28;19932;-82
2022/02/06 11:00:58;;;;;;;;;;;10.50;99.90;;;;;;5039395;28;20322;-84
2022/02/06 11:03:38;;;;;;;;;;;10.70;99.90;;;;;;5022222;28;19933;-82
2022/02/06 11:06:54;;;;;;;;;;;10.20;99.90;;;;;;5043868;28;19932;-83
2022/02/06 11:09:22;;;;;;;;;;;10.60;99.90;;;;;;5039986;28;19932;-82
2022/02/06 11:11:50;;;;;;;;;;;10.70;99.90;;;;;;5039648;28;19926;-83
2022/02/06 11:14:28;;;;;;;;;;;10.70;99.90;;;;;;5028969;28;19936;-85
2022/02/06 11:17:04;;;;;;;;;;;10.70;99.90;;;;;;5041784;28;19935;-84
2022/02/06 11:20:10;;;;;;;;;;;10.80;99.90;;;;;;5011004;28;19929;-82
2022/02/06 11:23:13;;;;;;;;;;;10.70;99.90;;;;;;5036766;28;19995;-84
2022/02/06 11:25:44;;;;;;;;;;;10.80;99.90;;;;;;5004150;28;19929;-84
2022/02/06 11:28:16;;;;;;;;;;;10.70;99.90;;;;;;5039720;28;20506;-83
2022/02/06 11:30:47;;;;;;;;;;;10.30;99.90;;;;;;5023417;28;19925;-84
2022/02/06 11:44:15;;;;;;;;;;;10.80;99.90;;;;;;5053030;28;19941;-84
2022/02/06 11:46:57;;;;;;;;;;;11.10;99.90;;;;;;5056098;28;19925;-82
2022/02/06 11:49:53;;;;;;;;;;;11.10;99.90;;;;;;5044201;28;19933;-83
2022/02/06 11:56:22;;;;;;;;;;;11.80;99.90;;;;;;5039408;28;19921;-83
2022/02/06 11:58:52;;;;;;;;;;;11.00;99.90;;;;;;5043149;28;19944;-80
2022/02/06 12:01:21;;;;;;;;;;;11.00;99.90;;;;;;5039177;28;19933;-80
2022/02/06 12:04:00;;;;;;;;;;;11.10;99.90;;;;;;5025506;28;19925;-80
2022/02/06 12:06:49;;;;;;;;;;;11.10;99.90;;;;;;5028723;28;19933;-83
2022/02/06 12:09:17;;;;;;;;;;;11.20;99.90;;;;;;5044856;28;19940;-83
2022/02/06 12:12:04;;;;;;;;;;;11.20;99.90;;;;;;5045424;28;19935;-84
2022/02/06 12:14:40;;;;;;;;;;;11.10;99.90;;;;;;5046330;28;19929;-84
2022/02/06 12:20:03;;;;;;;;;;;11.20;99.90;;;;;;5063774;28;19929;-86
2022/02/06 12:23:12;;;;;;;;;;;11.20;99.90;;;;;;5062329;28;19925;-84
2022/02/06 12:25:47;;;;;;;;;;;11.30;99.90;;;;;;5059990;28;19933;-84
2022/02/06 12:28:25;;;;;;;;;;;10.10;99.90;;;;;;5050562;28;19925;-83
2022/02/06 12:31:24;;;;;;;;;;;11.40;99.90;;;;;;5046527;28;19929;-82
2022/02/06 12:34:01;;;;;;;;;;;11.20;99.90;;;;;;5047637;28;19935;-83
2022/02/06 12:39:25;;;;;;;;;;;11.10;99.90;;;;;;5034725;28;19929;-82
2022/02/06 12:41:54;;;;;;;;;;;10.70;99.90;;;;;;5048509;28;19931;-85
2022/02/06 12:44:24;;;;;;;;;;;11.20;99.90;;;;;;5012112;28;19926;-85
2022/02/06 12:46:53;;;;;;;;;;;11.30;99.90;;;;;;5027765;28;19926;-83
2022/02/06 12:49:34;;;;;;;;;;;11.30;99.90;;;;;;5051758;28;20131;-83
2022/02/06 12:52:06;;;;;;;;;;;11.60;99.90;;;;;;5064903;28;19925;-82
2022/02/06 12:54:35;;;;;;;;;;;12.30;99.90;;;;;;5044319;28;19954;-84
2022/02/06 12:57:04;;;;;;;;;;;10.30;99.90;;;;;;5040975;28;19925;-82
2022/02/06 12:59:33;;;;;;;;;;;11.70;99.90;;;;;;5045666;28;19925;-82
2022/02/06 13:02:06;;;;;;;;;;;11.80;99.90;;;;;;5062072;28;19948;-82
2022/02/06 13:07:58;;;;;;;;;;;11.60;99.90;;;;;;5046723;28;19929;-82
2022/02/06 13:10:36;;;;;;;;;;;11.80;99.90;;;;;;5046150;28;20445;-82
2022/02/06 13:13:05;;;;;;;;;;;12.30;99.90;;;;;;5025306;28;19925;-82
2022/02/06 13:16:01;;;;;;;;;;;11.60;99.90;;;;;;5027474;28;19988;-83
2022/02/06 13:18:45;;;;;;;;;;;11.60;99.90;;;;;;5027280;28;19933;-82
2022/02/06 13:22:04;;;;;;;;;;;11.60;99.90;;;;;;5026650;28;19933;-84
2022/02/06 13:29:55;;;;;;;;;;;11.70;99.90;;;;;;5062641;28;19929;-82
2022/02/06 13:33:19;;;;;;;;;;;10.00;99.90;;;;;;5043464;28;19925;-82
2022/02/06 13:36:05;;;;;;;;;;;11.70;99.90;;;;;;5013700;28;19929;-84
2022/02/06 13:39:57;;;;;;;;;;;12.20;99.90;;;;;;5004932;28;19930;-86
2022/02/06 13:43:18;;;;;;;;;;;11.90;99.90;;;;;;4919724;29;20136;-85
2022/02/06 13:51:17;;;;;;;;;;;;;;;;;;;;;
2022/02/06 13:54:53;;;;;;;;;;;;;;;;;;;;;
2022/02/06 13:59:07;;;;;;;;;;;12.10;99.90;;;;;;4916630;29;19934;-85
2022/02/06 14:06:06;;;;;;;;;;;11.50;99.90;;;;;;4832272;29;19935;-85
2022/02/06 14:14:17;;;;;;;;;;;12.60;99.90;;;;;;4954935;28;19926;-85
2022/02/06 14:22:38;;;;;;;;;;;;;;;;;;;;;
2022/02/06 14:26:21;;;;;;;;;;;11.90;99.90;;;;;;4968719;28;19965;-85
2022/02/06 14:29:52;;;;;;;;;;;;;;;;;;;;;
2022/02/06 14:33:44;;;;;;;;;;;;;;;;;;;;;
2022/02/06 14:36:31;;;;;;;;;;;10.90;98.60;;;;;;4960884;28;19937;-83
2022/02/06 14:39:34;;;;;;;;;;;12.00;99.10;;;;;;4979084;28;20402;-84
2022/02/06 14:42:13;;;;;;;;;;;11.60;99.20;;;;;;4971422;28;19942;-85
2022/02/06 14:45:10;;;;;;;;;;;11.70;99.00;;;;;;4953488;28;19930;-84
2022/02/06 14:47:53;;;;;;;;;;;11.90;99.10;;;;;;5042439;28;20773;-84
2022/02/06 14:50:54;;;;;;;;;;;13.70;99.70;;;;;;5027196;28;19925;-84
2022/02/06 14:53:43;;;;;;;;;;;12.20;99.30;;;;;;5029628;28;19947;-84
2022/02/06 14:56:55;;;;;;;;;;;;;;;;;;;;;
2022/02/06 15:00:23;;;;;;;;;;;12.40;98.80;;;;;;4993981;28;19930;-86
2022/02/06 15:03:17;;;;;;;;;;;13.00;99.10;;;;;;5008968;28;19916;-85
2022/02/06 15:06:23;;;;;;;;;;;12.10;99.20;;;;;;4996449;28;20002;-84
2022/02/06 15:09:22;;;;;;;;;;;12.80;99.80;;;;;;4975406;28;19913;-85
2022/02/06 15:17:00;;;;;;;;;;;12.30;99.90;;;;;;5026641;28;19929;-86
2022/02/06 15:19:46;;;;;;;;;;;12.40;99.40;;;;;;5055369;28;19913;-85
2022/02/06 15:26:27;;;;;;;;;;;12.70;99.20;;;;;;5044296;28;19914;-84
2022/02/06 15:29:02;;;;;;;;;;;12.80;99.20;;;;;;5049520;28;19925;-85
2022/02/06 15:31:59;;;;;;;;;;;12.50;99.40;;;;;;5014451;28;19921;-85
2022/02/06 15:34:48;;;;;;;;;;;12.10;99.80;;;;;;5031974;28;20375;-85
2022/02/06 15:38:28;;;;;;;;;;;;;;;;;;;;;
2022/02/06 15:41:56;;;;;;;;;;;11.90;99.90;;;;;;5019910;28;19935;-85
2022/02/06 15:44:36;;;;;;;;;;;11.50;99.90;;;;;;5050276;28;20340;-84
2022/02/06 15:47:32;;;;;;;;;;;11.50;99.90;;;;;;5050799;28;20164;-84
2022/02/06 15:50:19;;;;;;;;;;;11.40;99.90;;;;;;5048854;28;19928;-84
2022/02/06 15:53:30;;;;;;;;;;;13.00;99.90;;;;;;5032869;28;20389;-85
2022/02/06 15:57:10;;;;;;;;;;;12.80;99.90;;;;;;4992078;28;19922;-86
2022/02/06 15:59:53;;;;;;;;;;;11.20;99.90;;;;;;4995809;28;19933;-84
2022/02/06 16:02:59;;;;;;;;;;;;;;;;;;;;;
2022/02/06 16:10:21;;;;;;;;;;;11.20;99.90;;;;;;4940694;29;19926;-85
2022/02/06 16:13:30;;;;;;;;;;;10.80;99.90;;;;;;4951732;29;19930;-84
2022/02/06 16:16:43;;;;;;;;;;;11.00;99.90;;;;;;4952840;28;19937;-85
2022/02/06 16:20:36;;;;;;;;;;;11.20;99.90;;;;;;4897177;29;19937;-84
2022/02/06 16:28:07;;;;;;;;;;;11.10;99.90;;;;;;4944620;28;19931;-84
2022/02/06 16:31:29;;;;;;;;;;;10.80;99.90;;;;;;4919655;29;20108;-84
2022/02/06 16:34:40;;;;;;;;;;;10.40;99.90;;;;;;4999340;28;19929;-85
2022/02/06 16:45:04;;;;;;;;;;;10.60;99.90;;;;;;4085808;26;19933;-84
2022/02/06 16:48:15;;;;;;;;;;;10.00;99.90;;;;;;5003088;28;19936;-84
2022/02/06 17:00:44;;;;;;;;;;;;;;;;;;;;;
2022/02/06 17:04:18;;;;;;;;;;;10.20;99.90;;;;;;4942481;29;19930;-84
2022/02/06 17:08:26;;;;;;;;;;;10.00;99.90;;;;;;4833057;29;20501;-84
2022/02/06 17:12:58;;;;;;;;;;;;;;;;;;;;;
2022/02/06 17:16:37;;;;;;;;;;;11.40;99.90;;;;;;4895078;29;19927;-84
2022/02/06 17:24:30;;;;;;;;;;;;;;;;;;;;;
2022/02/06 17:27:29;;;;;;;;;;;9.90;99.90;;;;;;4983683;28;19926;-85
2022/02/06 17:30:59;;;;;;;;;;;9.90;99.90;;;;;;4938172;28;19927;-85
2022/02/06 17:34:29;;;;;;;;;;;10.20;99.90;;;;;;4939582;28;19930;-84
2022/02/06 17:37:56;;;;;;;;;;;9.50;99.90;;;;;;4932861;29;20332;-83
2022/02/06 17:46:01;;;;;;;;;;;;;;;;;;;;;
2022/02/06 17:49:27;;;;;;;;;;;10.00;99.90;;;;;;4869751;29;19934;-84
2022/02/06 17:52:30;;;;;;;;;;;10.00;99.90;;;;;;4848352;29;19939;-85
2022/02/06 17:55:52;;;;;;;;;;;11.50;99.90;;;;;;4869062;29;19938;-86
2022/02/06 17:59:11;;;;;;;;;;;;;;;;;;;;;
2022/02/06 18:01:43;;;;;;;;;;;10.00;99.90;;;;;;4868586;29;20500;-84
2022/02/06 18:04:21;;;;;;;;;;;11.30;99.90;;;;;;4884993;29;19928;-84
2022/02/06 18:06:51;;;;;;;;;;;10.00;99.90;;;;;;4898389;29;19943;-84
2022/02/06 18:09:30;;;;;;;;;;;9.70;99.90;;;;;;4869732;29;19934;-84
2022/02/06 18:12:06;;;;;;;;;;;9.70;99.90;;;;;;4868690;29;19932;-84
2022/02/06 18:15:04;;;;;;;;;;;9.70;99.90;;;;;;4887962;29;19931;-83
2022/02/06 18:17:54;;;;;;;;;;;9.40;99.90;;;;;;4905484;29;19931;-85
2022/02/06 18:20:46;;;;;;;;;;;9.70;99.90;;;;;;4897413;29;19937;-84
2022/02/06 18:23:20;;;;;;;;;;;9.60;99.90;;;;;;4997061;28;19937;-86
2022/02/06 18:25:57;;;;;;;;;;;8.70;99.90;;;;;;4984410;28;19925;-85
2022/02/06 18:28:45;;;;;;;;;;;;;;;;;;;;;
2022/02/06 18:31:55;;;;;;;;;;;9.70;99.90;;;;;;4985862;28;19933;-85
2022/02/06 18:34:37;;;;;;;;;;;9.70;99.90;;;;;;4981633;28;19925;-85
2022/02/06 18:37:32;;;;;;;;;;;9.70;99.90;;;;;;4651283;28;10000621;-85
2022/02/06 18:43:58;;;;;;;;;;;9.70;99.90;;;;;;4980232;28;19929;-85
2022/02/06 18:47:44;;;;;;;;;;;;;;;;;;;;;
2022/02/06 18:51:02;;;;;;;;;;;;;;;;;;;;;
2022/02/06 18:54:08;;;;;;;;;;;9.30;99.90;;;;;;4964014;28;19934;-85
2022/02/06 18:57:11;;;;;;;;;;;9.30;99.90;;;;;;4967309;28;19930;-87
2022/02/06 19:00:23;;;;;;;;;;;;;;;;;;;;;
2022/02/06 19:03:39;;;;;;;;;;;9.50;99.90;;;;;;4961800;28;19938;-84
2022/02/06 19:08:00;;;;;;;;;;;8.60;99.90;;;;;;4924331;29;19934;-84
2022/02/06 19:31:36;;;;;;;;;;;;;;;;;;;;;
2022/02/06 19:35:23;;;;;;;;;;;8.60;99.90;;;;;;4879159;29;20003;-81
2022/02/06 19:37:56;;;;;;;;;;;9.90;99.90;;;;;;4872444;29;19936;-82
2022/02/06 19:40:27;;;;;;;;;;;8.70;99.90;;;;;;4869217;29;19936;-83
2022/02/06 19:43:04;;;;;;;;;;;8.40;99.90;;;;;;4884634;29;19947;-84
2022/02/06 19:45:56;;;;;;;;;;;8.50;99.90;;;;;;4958766;28;19935;-82
2022/02/06 19:48:37;;;;;;;;;;;;;;;;;;;;;
2022/02/06 19:51:14;;;;;;;;;;;8.10;99.90;;;;;;4949810;28;19937;-83
2022/02/06 19:57:10;;;;;;;;;;;11.50;99.90;;;;;;4985051;28;19941;-85
2022/02/06 19:59:46;;;;;;;;;;;8.00;99.90;;;;;;4987126;28;19961;-83
2022/02/06 20:03:20;;;;;;;;;;;8.30;99.90;;;;;;4979712;28;20418;-85
2022/02/06 20:06:13;;;;;;;;;;;8.70;99.90;;;;;;4988288;28;20440;-85
2022/02/06 20:08:50;;;;;;;;;;;9.40;99.90;;;;;;4971570;28;19926;-84
2022/02/06 20:11:37;;;;;;;;;;;8.50;99.90;;;;;;4992287;28;19941;-85
2022/02/06 20:14:05;;;;;;;;;;;8.10;99.90;;;;;;4957319;28;19926;-83
2022/02/06 20:20:38;;;;;;;;;;;;;;;;;;;;;
2022/02/06 20:23:46;;;;;;;;;;;;;;;;;;;;;
2022/02/06 20:27:03;;;;;;;;;;;8.20;99.90;;;;;;4963473;28;19933;-83
2022/02/06 20:29:54;;;;;;;;;;;8.10;99.90;;;;;;4967221;28;19926;-85
2022/02/06 20:32:28;;;;;;;;;;;8.20;99.50;;;;;;4969634;28;20304;-84
2022/02/06 20:35:16;;;;;;;;;;;8.70;99.90;;;;;;4955260;28;19945;-85
2022/02/06 20:38:10;;;;;;;;;;;8.40;99.90;;;;;;4611629;28;9999884;-85
2022/02/06 20:40:57;;;;;;;;;;;8.50;99.90;;;;;;4988057;28;20007;-85
2022/02/06 20:43:28;;;;;;;;;;;7.80;99.90;;;;;;4971449;28;20600;-85
2022/02/06 20:46:09;;;;;;;;;;;;;;;;;;;;;
2022/02/06 20:49:45;;;;;;;;;;;7.70;99.70;;;;;;4955057;28;19930;-84
2022/02/06 20:52:46;;;;;;;;;;;8.20;99.90;;;;;;4971800;28;20352;-85
2022/02/06 20:55:42;;;;;;;;;;;6.60;99.10;;;;;;4953755;28;19926;-84
2022/02/06 20:58:57;;;;;;;;;;;7.70;99.80;;;;;;4952693;28;19935;-85
2022/02/06 21:01:33;;;;;;;;;;;8.00;99.70;;;;;;4951353;28;19936;-84